sensor_id;sensor_type;location;lat;lon;timestamp;P1;durP1;ratioP1;P2;durP2;ratioP2
7001;SDS011;3541;53.230;10.518;2023-12-20T00:00:09;5.53;;;2.27;;
7001;SDS011;3541;53.230;10.518;2023-12-20T00:02:36;9.63;;;2.63;;
7001;SDS011;3541;53.230;10.518;2023-12-20T00:05:02;6.20;;;2.57;;
7001;SDS011;3541;53.230;10.518;2023-12-20T00:07:29;4.77;;;1.90;;
7001;SDS011;3541;53.230;10.518;2023-12-20T00:09:56;9.53;;;2.20;;
7001;SDS011;3541;53.230;10.518;2023-12-20T00:12:22;9.27;;;2.47;;
7001;SDS011;3541;53.230;10.518;2023-12-20T00:14:50;6.57;;;2.33;;
7001;SDS011;3541;53.230;10.518;2023-12-20T00:17:17;10.20;;;2.63;;
7001;SDS011;3541;53.230;10.518;2023-12-20T00:19:43;9.33;;;2.00;;
7001;SDS011;3541;53.230;10.518;2023-12-20T00:22:10;10.43;;;2.63;;
7001;SDS011;3541;53.230;10.518;2023-12-20T00:24:36;7.07;;;2.27;;
7001;SDS011;3541;53.230;10.518;2023-12-20T00:27:03;8.10;;;1.93;;
7001;SDS011;3541;53.230;10.518;2023-12-20T00:29:30;8.90;;;3.10;;
7001;SDS011;3541;53.230;10.518;2023-12-20T00:31:58;8.57;;;2.40;;
7001;SDS011;3541;53.230;10.518;2023-12-20T00:34:25;11.10;;;2.53;;
7001;SDS011;3541;53.230;10.518;2023-12-20T00:36:51;10.43;;;2.40;;
7001;SDS011;3541;53.230;10.518;2023-12-20T00:39:18;7.40;;;2.00;;
7001;SDS011;3541;53.230;10.518;2023-12-20T00:41:44;10.60;;;2.20;;
7001;SDS011;3541;53.230;10.518;2023-12-20T00:44:11;15.00;;;2.87;;
7001;SDS011;3541;53.230;10.518;2023-12-20T00:46:38;10.27;;;2.70;;
7001;SDS011;3541;53.230;10.518;2023-12-20T00:49:06;11.07;;;2.83;;
7001;SDS011;3541;53.230;10.518;2023-12-20T00:51:32;8.60;;;1.83;;
7001;SDS011;3541;53.230;10.518;2023-12-20T00:53:59;14.73;;;2.33;;
7001;SDS011;3541;53.230;10.518;2023-12-20T00:56:25;12.83;;;3.27;;
7001;SDS011;3541;53.230;10.518;2023-12-20T00:58:52;7.07;;;2.13;;
7001;SDS011;3541;53.230;10.518;2023-12-20T01:01:18;10.70;;;2.80;;
7001;SDS011;3541;53.230;10.518;2023-12-20T01:03:45;8.03;;;2.07;;
7001;SDS011;3541;53.230;10.518;2023-12-20T01:06:13;19.03;;;2.50;;
7001;SDS011;3541;53.230;10.518;2023-12-20T01:08:40;9.03;;;2.60;;
7001;SDS011;3541;53.230;10.518;2023-12-20T01:11:07;8.00;;;2.07;;
7001;SDS011;3541;53.230;10.518;2023-12-20T01:13:33;6.57;;;2.53;;
7001;SDS011;3541;53.230;10.518;2023-12-20T01:16:00;8.20;;;2.40;;
7001;SDS011;3541;53.230;10.518;2023-12-20T01:18:27;7.60;;;2.07;;
7001;SDS011;3541;53.230;10.518;2023-12-20T01:20:54;9.97;;;2.33;;
7001;SDS011;3541;53.230;10.518;2023-12-20T01:23:22;8.00;;;2.23;;
7001;SDS011;3541;53.230;10.518;2023-12-20T01:25:49;12.53;;;2.50;;
7001;SDS011;3541;53.230;10.518;2023-12-20T01:28:15;7.87;;;2.90;;
7001;SDS011;3541;53.230;10.518;2023-12-20T01:30:42;9.80;;;2.20;;
7001;SDS011;3541;53.230;10.518;2023-12-20T01:33:09;9.57;;;2.40;;
7001;SDS011;3541;53.230;10.518;2023-12-20T01:35:35;5.07;;;1.90;;
7001;SDS011;3541;53.230;10.518;2023-12-20T01:38:02;9.93;;;2.53;;
7001;SDS011;3541;53.230;10.518;2023-12-20T01:40:30;10.43;;;2.30;;
7001;SDS011;3541;53.230;10.518;2023-12-20T01:42:59;9.03;;;2.93;;
7001;SDS011;3541;53.230;10.518;2023-12-20T01:45:26;8.97;;;1.97;;
7001;SDS011;3541;53.230;10.518;2023-12-20T01:47:53;12.80;;;2.67;;
7001;SDS011;3541;53.230;10.518;2023-12-20T01:50:21;11.57;;;2.20;;
7001;SDS011;3541;53.230;10.518;2023-12-20T01:52:48;12.67;;;2.73;;
7001;SDS011;3541;53.230;10.518;2023-12-20T01:55:17;12.13;;;2.77;;
7001;SDS011;3541;53.230;10.518;2023-12-20T01:57:45;14.63;;;2.87;;
7001;SDS011;3541;53.230;10.518;2023-12-20T02:00:13;10.33;;;2.33;;
7001;SDS011;3541;53.230;10.518;2023-12-20T02:02:41;10.87;;;2.40;;
7001;SDS011;3541;53.230;10.518;2023-12-20T02:05:08;7.47;;;2.43;;
7001;SDS011;3541;53.230;10.518;2023-12-20T02:07:35;11.57;;;2.60;;
7001;SDS011;3541;53.230;10.518;2023-12-20T02:10:02;11.33;;;2.20;;
7001;SDS011;3541;53.230;10.518;2023-12-20T02:12:29;11.23;;;1.87;;
7001;SDS011;3541;53.230;10.518;2023-12-20T02:14:57;10.60;;;2.17;;
7001;SDS011;3541;53.230;10.518;2023-12-20T02:17:24;13.23;;;2.77;;
7001;SDS011;3541;53.230;10.518;2023-12-20T02:19:51;10.70;;;2.77;;
7001;SDS011;3541;53.230;10.518;2023-12-20T02:22:19;7.70;;;1.93;;
7001;SDS011;3541;53.230;10.518;2023-12-20T02:24:46;7.13;;;2.30;;
7001;SDS011;3541;53.230;10.518;2023-12-20T02:27:12;12.80;;;3.03;;
7001;SDS011;3541;53.230;10.518;2023-12-20T02:29:41;11.03;;;2.50;;
7001;SDS011;3541;53.230;10.518;2023-12-20T02:32:07;8.67;;;2.60;;
7001;SDS011;3541;53.230;10.518;2023-12-20T02:34:34;14.80;;;3.90;;
7001;SDS011;3541;53.230;10.518;2023-12-20T02:37:01;13.30;;;3.13;;
7001;SDS011;3541;53.230;10.518;2023-12-20T02:39:28;12.40;;;2.93;;
7001;SDS011;3541;53.230;10.518;2023-12-20T02:41:55;12.93;;;3.73;;
7001;SDS011;3541;53.230;10.518;2023-12-20T02:44:22;9.83;;;3.33;;
7001;SDS011;3541;53.230;10.518;2023-12-20T02:46:49;7.67;;;3.20;;
7001;SDS011;3541;53.230;10.518;2023-12-20T02:49:15;10.53;;;4.10;;
7001;SDS011;3541;53.230;10.518;2023-12-20T02:51:42;10.37;;;3.77;;
7001;SDS011;3541;53.230;10.518;2023-12-20T02:54:08;15.20;;;4.13;;
7001;SDS011;3541;53.230;10.518;2023-12-20T02:56:36;11.73;;;3.60;;
7001;SDS011;3541;53.230;10.518;2023-12-20T02:59:03;11.53;;;3.63;;
7001;SDS011;3541;53.230;10.518;2023-12-20T03:01:30;10.77;;;3.00;;
7001;SDS011;3541;53.230;10.518;2023-12-20T03:03:57;9.53;;;3.63;;
7001;SDS011;3541;53.230;10.518;2023-12-20T03:06:24;11.57;;;3.63;;
7001;SDS011;3541;53.230;10.518;2023-12-20T03:08:51;13.63;;;4.13;;
7001;SDS011;3541;53.230;10.518;2023-12-20T03:11:17;9.40;;;3.53;;
7001;SDS011;3541;53.230;10.518;2023-12-20T03:13:45;6.10;;;3.27;;
7001;SDS011;3541;53.230;10.518;2023-12-20T03:16:12;7.97;;;3.50;;
7001;SDS011;3541;53.230;10.518;2023-12-20T03:18:41;10.60;;;3.50;;
7001;SDS011;3541;53.230;10.518;2023-12-20T03:21:07;9.43;;;3.17;;
7001;SDS011;3541;53.230;10.518;2023-12-20T03:23:34;11.80;;;3.90;;
7001;SDS011;3541;53.230;10.518;2023-12-20T03:26:00;12.17;;;3.73;;
7001;SDS011;3541;53.230;10.518;2023-12-20T03:28:27;9.67;;;3.93;;
7001;SDS011;3541;53.230;10.518;2023-12-20T03:30:55;9.87;;;3.40;;
7001;SDS011;3541;53.230;10.518;2023-12-20T03:33:22;15.93;;;3.53;;
7001;SDS011;3541;53.230;10.518;2023-12-20T03:35:48;8.20;;;3.10;;
7001;SDS011;3541;53.230;10.518;2023-12-20T03:38:15;9.83;;;3.47;;
7001;SDS011;3541;53.230;10.518;2023-12-20T03:40:41;9.80;;;2.90;;
7001;SDS011;3541;53.230;10.518;2023-12-20T03:43:08;7.67;;;3.17;;
7001;SDS011;3541;53.230;10.518;2023-12-20T03:45:34;10.97;;;3.33;;
7001;SDS011;3541;53.230;10.518;2023-12-20T03:48:02;10.03;;;3.60;;
7001;SDS011;3541;53.230;10.518;2023-12-20T03:50:30;7.03;;;2.60;;
7001;SDS011;3541;53.230;10.518;2023-12-20T03:52:56;7.53;;;2.90;;
7001;SDS011;3541;53.230;10.518;2023-12-20T03:55:23;12.10;;;2.70;;
7001;SDS011;3541;53.230;10.518;2023-12-20T03:57:49;7.53;;;2.87;;
7001;SDS011;3541;53.230;10.518;2023-12-20T04:00:16;10.43;;;3.40;;
7001;SDS011;3541;53.230;10.518;2023-12-20T04:02:43;11.10;;;2.90;;
7001;SDS011;3541;53.230;10.518;2023-12-20T04:05:11;10.77;;;3.00;;
7001;SDS011;3541;53.230;10.518;2023-12-20T04:07:38;7.23;;;2.57;;
7001;SDS011;3541;53.230;10.518;2023-12-20T04:10:05;10.03;;;2.93;;
7001;SDS011;3541;53.230;10.518;2023-12-20T04:12:33;8.67;;;2.40;;
7001;SDS011;3541;53.230;10.518;2023-12-20T04:14:59;6.10;;;2.37;;
7001;SDS011;3541;53.230;10.518;2023-12-20T04:17:26;10.13;;;2.77;;
7001;SDS011;3541;53.230;10.518;2023-12-20T04:19:52;10.40;;;2.50;;
7001;SDS011;3541;53.230;10.518;2023-12-20T04:22:20;11.47;;;2.70;;
7001;SDS011;3541;53.230;10.518;2023-12-20T04:24:47;8.00;;;2.07;;
7001;SDS011;3541;53.230;10.518;2023-12-20T04:27:13;5.10;;;2.17;;
7001;SDS011;3541;53.230;10.518;2023-12-20T04:29:40;13.73;;;3.17;;
7001;SDS011;3541;53.230;10.518;2023-12-20T04:32:07;6.13;;;2.40;;
7001;SDS011;3541;53.230;10.518;2023-12-20T04:34:33;16.87;;;3.60;;
7001;SDS011;3541;53.230;10.518;2023-12-20T04:37:00;8.90;;;3.03;;
7001;SDS011;3541;53.230;10.518;2023-12-20T04:39:28;10.60;;;2.53;;
7001;SDS011;3541;53.230;10.518;2023-12-20T04:41:55;7.67;;;2.17;;
7001;SDS011;3541;53.230;10.518;2023-12-20T04:44:21;9.83;;;2.70;;
7001;SDS011;3541;53.230;10.518;2023-12-20T04:46:48;10.47;;;2.90;;
7001;SDS011;3541;53.230;10.518;2023-12-20T04:49:15;8.63;;;2.77;;
7001;SDS011;3541;53.230;10.518;2023-12-20T04:51:42;11.77;;;3.10;;
7001;SDS011;3541;53.230;10.518;2023-12-20T04:54:08;5.60;;;2.70;;
7001;SDS011;3541;53.230;10.518;2023-12-20T04:56:37;12.43;;;3.03;;
7001;SDS011;3541;53.230;10.518;2023-12-20T04:59:03;8.77;;;2.90;;
7001;SDS011;3541;53.230;10.518;2023-12-20T05:01:30;6.87;;;2.37;;
7001;SDS011;3541;53.230;10.518;2023-12-20T05:03:57;10.80;;;2.77;;
7001;SDS011;3541;53.230;10.518;2023-12-20T05:06:23;9.33;;;2.90;;
7001;SDS011;3541;53.230;10.518;2023-12-20T05:08:50;9.97;;;2.73;;
7001;SDS011;3541;53.230;10.518;2023-12-20T05:11:17;15.17;;;2.67;;
7001;SDS011;3541;53.230;10.518;2023-12-20T05:13:45;15.53;;;5.07;;
7001;SDS011;3541;53.230;10.518;2023-12-20T05:16:11;8.73;;;2.57;;
7001;SDS011;3541;53.230;10.518;2023-12-20T05:18:39;10.43;;;2.83;;
7001;SDS011;3541;53.230;10.518;2023-12-20T05:21:05;8.70;;;2.80;;
7001;SDS011;3541;53.230;10.518;2023-12-20T05:23:32;7.20;;;3.13;;
7001;SDS011;3541;53.230;10.518;2023-12-20T05:25:59;9.70;;;3.10;;
7001;SDS011;3541;53.230;10.518;2023-12-20T05:28:25;8.97;;;2.93;;
7001;SDS011;3541;53.230;10.518;2023-12-20T05:30:53;17.33;;;3.23;;
7001;SDS011;3541;53.230;10.518;2023-12-20T05:33:20;10.87;;;2.87;;
7001;SDS011;3541;53.230;10.518;2023-12-20T05:35:47;15.03;;;3.60;;
7001;SDS011;3541;53.230;10.518;2023-12-20T05:38:13;10.13;;;2.97;;
7001;SDS011;3541;53.230;10.518;2023-12-20T05:40:40;13.90;;;3.13;;
7001;SDS011;3541;53.230;10.518;2023-12-20T05:43:06;11.60;;;3.23;;
7001;SDS011;3541;53.230;10.518;2023-12-20T05:45:33;17.20;;;3.13;;
7001;SDS011;3541;53.230;10.518;2023-12-20T05:48:00;10.73;;;3.03;;
7001;SDS011;3541;53.230;10.518;2023-12-20T05:50:27;15.60;;;3.60;;
7001;SDS011;3541;53.230;10.518;2023-12-20T05:52:53;6.97;;;3.17;;
7001;SDS011;3541;53.230;10.518;2023-12-20T05:55:20;10.20;;;3.00;;
7001;SDS011;3541;53.230;10.518;2023-12-20T05:57:47;13.37;;;3.70;;
7001;SDS011;3541;53.230;10.518;2023-12-20T06:00:14;10.77;;;2.83;;
7001;SDS011;3541;53.230;10.518;2023-12-20T06:02:41;12.33;;;2.83;;
7001;SDS011;3541;53.230;10.518;2023-12-20T06:05:09;10.47;;;2.93;;
7001;SDS011;3541;53.230;10.518;2023-12-20T06:07:35;13.70;;;3.10;;
7001;SDS011;3541;53.230;10.518;2023-12-20T06:10:02;9.97;;;3.03;;
7001;SDS011;3541;53.230;10.518;2023-12-20T06:12:31;14.80;;;2.87;;
7001;SDS011;3541;53.230;10.518;2023-12-20T06:15:00;9.73;;;2.83;;
7001;SDS011;3541;53.230;10.518;2023-12-20T06:17:27;11.63;;;2.93;;
7001;SDS011;3541;53.230;10.518;2023-12-20T06:19:55;16.60;;;3.90;;
7001;SDS011;3541;53.230;10.518;2023-12-20T06:22:23;9.87;;;3.20;;
7001;SDS011;3541;53.230;10.518;2023-12-20T06:24:49;11.83;;;3.30;;
7001;SDS011;3541;53.230;10.518;2023-12-20T06:27:16;13.43;;;3.63;;
7001;SDS011;3541;53.230;10.518;2023-12-20T06:29:43;11.23;;;2.97;;
7001;SDS011;3541;53.230;10.518;2023-12-20T06:32:10;6.87;;;3.07;;
7001;SDS011;3541;53.230;10.518;2023-12-20T06:34:36;14.53;;;3.27;;
7001;SDS011;3541;53.230;10.518;2023-12-20T06:37:03;11.93;;;3.37;;
7001;SDS011;3541;53.230;10.518;2023-12-20T06:39:32;13.77;;;4.17;;
7001;SDS011;3541;53.230;10.518;2023-12-20T06:41:59;11.87;;;4.03;;
7001;SDS011;3541;53.230;10.518;2023-12-20T06:44:26;11.07;;;3.53;;
7001;SDS011;3541;53.230;10.518;2023-12-20T06:46:52;11.33;;;3.80;;
7001;SDS011;3541;53.230;10.518;2023-12-20T06:49:19;9.13;;;3.27;;
7001;SDS011;3541;53.230;10.518;2023-12-20T06:51:45;15.53;;;3.73;;
7001;SDS011;3541;53.230;10.518;2023-12-20T06:54:12;12.00;;;3.10;;
7001;SDS011;3541;53.230;10.518;2023-12-20T06:56:40;9.73;;;3.37;;
7001;SDS011;3541;53.230;10.518;2023-12-20T06:59:07;13.00;;;3.57;;
7001;SDS011;3541;53.230;10.518;2023-12-20T07:01:33;13.07;;;3.00;;
7001;SDS011;3541;53.230;10.518;2023-12-20T07:04:00;13.53;;;3.83;;
7001;SDS011;3541;53.230;10.518;2023-12-20T07:06:26;12.53;;;3.40;;
7001;SDS011;3541;53.230;10.518;2023-12-20T07:08:53;13.67;;;3.57;;
7001;SDS011;3541;53.230;10.518;2023-12-20T07:11:19;11.00;;;2.87;;
7001;SDS011;3541;53.230;10.518;2023-12-20T07:13:48;15.43;;;4.10;;
7001;SDS011;3541;53.230;10.518;2023-12-20T07:16:14;11.30;;;3.20;;
7001;SDS011;3541;53.230;10.518;2023-12-20T07:18:41;12.57;;;3.43;;
7001;SDS011;3541;53.230;10.518;2023-12-20T07:21:07;14.83;;;3.47;;
7001;SDS011;3541;53.230;10.518;2023-12-20T07:23:34;11.63;;;3.00;;
7001;SDS011;3541;53.230;10.518;2023-12-20T07:26:01;13.47;;;3.37;;
7001;SDS011;3541;53.230;10.518;2023-12-20T07:28:29;13.73;;;3.70;;
7001;SDS011;3541;53.230;10.518;2023-12-20T07:30:57;13.83;;;4.53;;
7001;SDS011;3541;53.230;10.518;2023-12-20T07:33:23;13.33;;;3.53;;
7001;SDS011;3541;53.230;10.518;2023-12-20T07:35:50;15.80;;;3.97;;
7001;SDS011;3541;53.230;10.518;2023-12-20T07:38:17;13.87;;;3.30;;
7001;SDS011;3541;53.230;10.518;2023-12-20T07:40:43;9.03;;;3.17;;
7001;SDS011;3541;53.230;10.518;2023-12-20T07:43:10;15.83;;;3.37;;
7001;SDS011;3541;53.230;10.518;2023-12-20T07:45:36;11.27;;;3.17;;
7001;SDS011;3541;53.230;10.518;2023-12-20T07:48:05;17.07;;;3.13;;
7001;SDS011;3541;53.230;10.518;2023-12-20T07:50:32;11.97;;;3.73;;
7001;SDS011;3541;53.230;10.518;2023-12-20T07:52:59;12.80;;;4.03;;
7001;SDS011;3541;53.230;10.518;2023-12-20T07:55:26;7.70;;;2.80;;
7001;SDS011;3541;53.230;10.518;2023-12-20T07:57:52;10.60;;;3.10;;
7001;SDS011;3541;53.230;10.518;2023-12-20T08:00:19;15.13;;;3.30;;
7001;SDS011;3541;53.230;10.518;2023-12-20T08:02:45;9.80;;;3.27;;
7001;SDS011;3541;53.230;10.518;2023-12-20T08:05:13;13.73;;;2.90;;
7001;SDS011;3541;53.230;10.518;2023-12-20T08:07:40;15.43;;;3.47;;
7001;SDS011;3541;53.230;10.518;2023-12-20T08:10:07;16.37;;;3.40;;
7001;SDS011;3541;53.230;10.518;2023-12-20T08:12:34;11.07;;;3.97;;
7001;SDS011;3541;53.230;10.518;2023-12-20T08:15:01;15.13;;;3.87;;
7001;SDS011;3541;53.230;10.518;2023-12-20T08:17:28;13.97;;;3.73;;
7001;SDS011;3541;53.230;10.518;2023-12-20T08:19:55;18.33;;;3.60;;
7001;SDS011;3541;53.230;10.518;2023-12-20T08:22:23;14.40;;;2.97;;
7001;SDS011;3541;53.230;10.518;2023-12-20T08:24:50;12.83;;;3.77;;
7001;SDS011;3541;53.230;10.518;2023-12-20T08:27:16;12.13;;;3.47;;
7001;SDS011;3541;53.230;10.518;2023-12-20T08:29:43;14.10;;;3.80;;
7001;SDS011;3541;53.230;10.518;2023-12-20T08:32:10;13.30;;;2.97;;
7001;SDS011;3541;53.230;10.518;2023-12-20T08:34:36;13.20;;;3.37;;
7001;SDS011;3541;53.230;10.518;2023-12-20T08:37:03;19.27;;;4.13;;
7001;SDS011;3541;53.230;10.518;2023-12-20T08:39:31;12.43;;;3.57;;
7001;SDS011;3541;53.230;10.518;2023-12-20T08:41:58;15.37;;;3.43;;
7001;SDS011;3541;53.230;10.518;2023-12-20T08:44:25;10.70;;;3.70;;
7001;SDS011;3541;53.230;10.518;2023-12-20T08:46:51;12.80;;;3.27;;
7001;SDS011;3541;53.230;10.518;2023-12-20T08:49:18;8.97;;;3.13;;
7001;SDS011;3541;53.230;10.518;2023-12-20T08:51:45;12.27;;;3.13;;
7001;SDS011;3541;53.230;10.518;2023-12-20T08:54:11;12.77;;;4.37;;
7001;SDS011;3541;53.230;10.518;2023-12-20T08:56:39;17.00;;;3.53;;
7001;SDS011;3541;53.230;10.518;2023-12-20T08:59:06;15.40;;;3.50;;
7001;SDS011;3541;53.230;10.518;2023-12-20T09:01:32;15.20;;;3.60;;
7001;SDS011;3541;53.230;10.518;2023-12-20T09:03:59;12.07;;;3.30;;
7001;SDS011;3541;53.230;10.518;2023-12-20T09:06:25;11.47;;;3.27;;
7001;SDS011;3541;53.230;10.518;2023-12-20T09:08:52;14.97;;;3.77;;
7001;SDS011;3541;53.230;10.518;2023-12-20T09:11:18;6.13;;;2.73;;
7001;SDS011;3541;53.230;10.518;2023-12-20T09:13:46;11.37;;;3.30;;
7001;SDS011;3541;53.230;10.518;2023-12-20T09:16:13;10.23;;;3.10;;
7001;SDS011;3541;53.230;10.518;2023-12-20T09:18:40;16.33;;;3.60;;
7001;SDS011;3541;53.230;10.518;2023-12-20T09:21:07;10.47;;;3.47;;
7001;SDS011;3541;53.230;10.518;2023-12-20T09:23:33;9.60;;;2.80;;
7001;SDS011;3541;53.230;10.518;2023-12-20T09:26:01;14.43;;;4.87;;
7001;SDS011;3541;53.230;10.518;2023-12-20T09:28:28;16.27;;;3.53;;
7001;SDS011;3541;53.230;10.518;2023-12-20T09:30:56;11.00;;;3.30;;
7001;SDS011;3541;53.230;10.518;2023-12-20T09:33:22;11.43;;;3.40;;
7001;SDS011;3541;53.230;10.518;2023-12-20T09:35:49;18.37;;;3.67;;
7001;SDS011;3541;53.230;10.518;2023-12-20T09:38:16;9.10;;;3.27;;
7001;SDS011;3541;53.230;10.518;2023-12-20T09:40:42;10.60;;;3.27;;
7001;SDS011;3541;53.230;10.518;2023-12-20T09:43:10;11.17;;;3.20;;
7001;SDS011;3541;53.230;10.518;2023-12-20T09:45:39;15.27;;;3.63;;
7001;SDS011;3541;53.230;10.518;2023-12-20T09:48:08;12.60;;;2.77;;
7001;SDS011;3541;53.230;10.518;2023-12-20T09:50:37;15.07;;;4.47;;
7001;SDS011;3541;53.230;10.518;2023-12-20T09:53:03;12.77;;;3.73;;
7001;SDS011;3541;53.230;10.518;2023-12-20T09:55:34;13.47;;;3.77;;
7001;SDS011;3541;53.230;10.518;2023-12-20T09:58:01;19.83;;;4.23;;
7001;SDS011;3541;53.230;10.518;2023-12-20T10:00:28;13.73;;;3.53;;
7001;SDS011;3541;53.230;10.518;2023-12-20T10:02:56;9.33;;;3.87;;
7001;SDS011;3541;53.230;10.518;2023-12-20T10:05:26;11.10;;;3.20;;
7001;SDS011;3541;53.230;10.518;2023-12-20T10:07:53;11.20;;;3.37;;
7001;SDS011;3541;53.230;10.518;2023-12-20T10:10:19;13.10;;;3.17;;
7001;SDS011;3541;53.230;10.518;2023-12-20T10:13:00;8.27;;;2.83;;
7001;SDS011;3541;53.230;10.518;2023-12-20T10:15:28;6.50;;;2.47;;
7001;SDS011;3541;53.230;10.518;2023-12-20T10:17:54;3.30;;;1.87;;
7001;SDS011;3541;53.230;10.518;2023-12-20T10:20:21;4.80;;;2.33;;
7001;SDS011;3541;53.230;10.518;2023-12-20T10:22:49;4.83;;;1.93;;
7001;SDS011;3541;53.230;10.518;2023-12-20T10:25:18;3.50;;;1.60;;
7001;SDS011;3541;53.230;10.518;2023-12-20T10:27:45;4.83;;;2.00;;
7001;SDS011;3541;53.230;10.518;2023-12-20T10:30:12;4.90;;;1.73;;
7001;SDS011;3541;53.230;10.518;2023-12-20T10:32:39;4.53;;;1.90;;
7001;SDS011;3541;53.230;10.518;2023-12-20T10:35:06;4.37;;;1.40;;
7001;SDS011;3541;53.230;10.518;2023-12-20T10:37:42;6.70;;;1.80;;
7001;SDS011;3541;53.230;10.518;2023-12-20T10:40:09;5.83;;;2.27;;
7001;SDS011;3541;53.230;10.518;2023-12-20T10:42:36;2.57;;;1.30;;
7001;SDS011;3541;53.230;10.518;2023-12-20T10:45:04;3.70;;;1.60;;
7001;SDS011;3541;53.230;10.518;2023-12-20T10:47:31;3.13;;;1.30;;
7001;SDS011;3541;53.230;10.518;2023-12-20T10:49:59;3.83;;;1.33;;
7001;SDS011;3541;53.230;10.518;2023-12-20T10:52:26;1.40;;;1.30;;
7001;SDS011;3541;53.230;10.518;2023-12-20T10:54:56;3.50;;;1.37;;
7001;SDS011;3541;53.230;10.518;2023-12-20T10:57:23;1.50;;;1.40;;
7001;SDS011;3541;53.230;10.518;2023-12-20T10:59:53;3.57;;;1.20;;
7001;SDS011;3541;53.230;10.518;2023-12-20T11:02:22;2.63;;;1.20;;
7001;SDS011;3541;53.230;10.518;2023-12-20T11:04:50;1.90;;;1.20;;
7001;SDS011;3541;53.230;10.518;2023-12-20T11:07:21;2.17;;;1.30;;
7001;SDS011;3541;53.230;10.518;2023-12-20T11:09:59;3.73;;;1.30;;
7001;SDS011;3541;53.230;10.518;2023-12-20T11:12:32;2.17;;;1.27;;
7001;SDS011;3541;53.230;10.518;2023-12-20T11:15:03;2.50;;;1.10;;
7001;SDS011;3541;53.230;10.518;2023-12-20T11:17:31;3.60;;;1.30;;
7001;SDS011;3541;53.230;10.518;2023-12-20T11:20:05;2.90;;;1.10;;
7001;SDS011;3541;53.230;10.518;2023-12-20T11:22:35;2.60;;;1.27;;
7001;SDS011;3541;53.230;10.518;2023-12-20T11:25:04;3.23;;;1.10;;
7001;SDS011;3541;53.230;10.518;2023-12-20T11:27:33;5.23;;;1.13;;
7001;SDS011;3541;53.230;10.518;2023-12-20T11:30:00;4.87;;;1.60;;
7001;SDS011;3541;53.230;10.518;2023-12-20T11:32:31;3.17;;;1.10;;
7001;SDS011;3541;53.230;10.518;2023-12-20T11:35:00;3.10;;;1.50;;
7001;SDS011;3541;53.230;10.518;2023-12-20T11:37:31;4.53;;;1.40;;
7001;SDS011;3541;53.230;10.518;2023-12-20T11:40:05;3.93;;;1.27;;
7001;SDS011;3541;53.230;10.518;2023-12-20T11:42:37;4.20;;;1.70;;
7001;SDS011;3541;53.230;10.518;2023-12-20T11:45:05;6.37;;;1.50;;
7001;SDS011;3541;53.230;10.518;2023-12-20T11:47:34;4.57;;;1.50;;
7001;SDS011;3541;53.230;10.518;2023-12-20T11:50:00;2.73;;;1.33;;
7001;SDS011;3541;53.230;10.518;2023-12-20T11:52:29;2.00;;;1.20;;
7001;SDS011;3541;53.230;10.518;2023-12-20T11:54:56;2.13;;;1.50;;
7001;SDS011;3541;53.230;10.518;2023-12-20T11:57:24;4.07;;;1.37;;
7001;SDS011;3541;53.230;10.518;2023-12-20T11:59:51;3.50;;;1.47;;
7001;SDS011;3541;53.230;10.518;2023-12-20T12:02:18;5.10;;;1.50;;
7001;SDS011;3541;53.230;10.518;2023-12-20T12:04:44;3.97;;;1.50;;
7001;SDS011;3541;53.230;10.518;2023-12-20T12:07:11;3.20;;;1.43;;
7001;SDS011;3541;53.230;10.518;2023-12-20T12:09:37;3.40;;;1.40;;
7001;SDS011;3541;53.230;10.518;2023-12-20T12:12:04;3.70;;;1.57;;
7001;SDS011;3541;53.230;10.518;2023-12-20T12:14:34;8.07;;;1.97;;
7001;SDS011;3541;53.230;10.518;2023-12-20T12:17:02;5.10;;;1.83;;
7001;SDS011;3541;53.230;10.518;2023-12-20T12:19:29;5.67;;;1.80;;
7001;SDS011;3541;53.230;10.518;2023-12-20T12:22:06;9.90;;;2.70;;
7001;SDS011;3541;53.230;10.518;2023-12-20T12:24:38;4.00;;;1.70;;
7001;SDS011;3541;53.230;10.518;2023-12-20T12:27:05;7.60;;;2.00;;
7001;SDS011;3541;53.230;10.518;2023-12-20T12:29:33;2.80;;;1.50;;
7001;SDS011;3541;53.230;10.518;2023-12-20T12:32:01;8.83;;;1.83;;
7001;SDS011;3541;53.230;10.518;2023-12-20T12:34:31;6.87;;;1.77;;
7001;SDS011;3541;53.230;10.518;2023-12-20T12:36:59;7.00;;;1.93;;
7001;SDS011;3541;53.230;10.518;2023-12-20T12:39:25;10.10;;;3.07;;
7001;SDS011;3541;53.230;10.518;2023-12-20T12:41:52;6.83;;;1.80;;
7001;SDS011;3541;53.230;10.518;2023-12-20T12:44:19;7.67;;;1.87;;
7001;SDS011;3541;53.230;10.518;2023-12-20T12:46:49;5.53;;;1.77;;
7001;SDS011;3541;53.230;10.518;2023-12-20T12:49:18;7.63;;;2.30;;
7001;SDS011;3541;53.230;10.518;2023-12-20T12:51:46;7.40;;;2.03;;
7001;SDS011;3541;53.230;10.518;2023-12-20T12:54:12;8.03;;;1.90;;
7001;SDS011;3541;53.230;10.518;2023-12-20T12:56:41;10.50;;;2.40;;
7001;SDS011;3541;53.230;10.518;2023-12-20T12:59:08;6.93;;;2.27;;
7001;SDS011;3541;53.230;10.518;2023-12-20T13:01:35;6.93;;;1.93;;
7001;SDS011;3541;53.230;10.518;2023-12-20T13:04:03;11.83;;;2.57;;
7001;SDS011;3541;53.230;10.518;2023-12-20T13:06:35;7.50;;;1.87;;
7001;SDS011;3541;53.230;10.518;2023-12-20T13:09:02;9.80;;;2.27;;
7001;SDS011;3541;53.230;10.518;2023-12-20T13:11:29;8.27;;;2.00;;
7001;SDS011;3541;53.230;10.518;2023-12-20T13:13:56;9.20;;;2.20;;
7001;SDS011;3541;53.230;10.518;2023-12-20T13:16:23;10.13;;;2.30;;
7001;SDS011;3541;53.230;10.518;2023-12-20T13:18:50;6.43;;;2.20;;
7001;SDS011;3541;53.230;10.518;2023-12-20T13:21:18;8.27;;;2.77;;
7001;SDS011;3541;53.230;10.518;2023-12-20T13:23:44;4.40;;;1.63;;
7001;SDS011;3541;53.230;10.518;2023-12-20T13:26:11;6.03;;;1.70;;
7001;SDS011;3541;53.230;10.518;2023-12-20T13:28:37;9.80;;;1.70;;
7001;SDS011;3541;53.230;10.518;2023-12-20T13:31:04;7.97;;;1.67;;
7001;SDS011;3541;53.230;10.518;2023-12-20T13:33:30;2.80;;;1.40;;
7001;SDS011;3541;53.230;10.518;2023-12-20T13:35:57;5.77;;;2.27;;
7001;SDS011;3541;53.230;10.518;2023-12-20T13:38:26;4.73;;;1.47;;
7001;SDS011;3541;53.230;10.518;2023-12-20T13:40:52;5.00;;;2.30;;
7001;SDS011;3541;53.230;10.518;2023-12-20T13:43:19;6.77;;;1.90;;
7001;SDS011;3541;53.230;10.518;2023-12-20T13:45:46;7.90;;;2.00;;
7001;SDS011;3541;53.230;10.518;2023-12-20T13:48:12;3.97;;;1.57;;
7001;SDS011;3541;53.230;10.518;2023-12-20T13:50:39;10.10;;;2.00;;
7001;SDS011;3541;53.230;10.518;2023-12-20T13:53:05;9.33;;;2.30;;
7001;SDS011;3541;53.230;10.518;2023-12-20T13:55:33;8.80;;;2.17;;
7001;SDS011;3541;53.230;10.518;2023-12-20T13:58:00;5.67;;;2.70;;
7001;SDS011;3541;53.230;10.518;2023-12-20T14:00:26;12.20;;;2.40;;
7001;SDS011;3541;53.230;10.518;2023-12-20T14:02:53;8.97;;;2.17;;
7001;SDS011;3541;53.230;10.518;2023-12-20T14:05:19;9.93;;;2.80;;
7001;SDS011;3541;53.230;10.518;2023-12-20T14:07:48;7.47;;;2.13;;
7001;SDS011;3541;53.230;10.518;2023-12-20T14:10:15;12.77;;;2.50;;
7001;SDS011;3541;53.230;10.518;2023-12-20T14:12:43;9.07;;;2.77;;
7001;SDS011;3541;53.230;10.518;2023-12-20T14:15:10;11.97;;;2.33;;
7001;SDS011;3541;53.230;10.518;2023-12-20T14:17:38;13.00;;;3.00;;
7001;SDS011;3541;53.230;10.518;2023-12-20T14:20:05;11.13;;;2.70;;
7001;SDS011;3541;53.230;10.518;2023-12-20T14:22:32;10.17;;;2.97;;
7001;SDS011;3541;53.230;10.518;2023-12-20T14:24:59;10.03;;;2.60;;
7001;SDS011;3541;53.230;10.518;2023-12-20T14:27:26;12.50;;;3.23;;
7001;SDS011;3541;53.230;10.518;2023-12-20T14:29:54;10.37;;;3.17;;
7001;SDS011;3541;53.230;10.518;2023-12-20T14:32:21;19.03;;;3.10;;
7001;SDS011;3541;53.230;10.518;2023-12-20T14:34:48;7.93;;;3.03;;
7001;SDS011;3541;53.230;10.518;2023-12-20T14:37:14;11.77;;;2.70;;
7001;SDS011;3541;53.230;10.518;2023-12-20T14:39:42;16.03;;;3.93;;
7001;SDS011;3541;53.230;10.518;2023-12-20T14:42:08;11.23;;;4.13;;
7001;SDS011;3541;53.230;10.518;2023-12-20T14:44:37;10.23;;;2.93;;
7001;SDS011;3541;53.230;10.518;2023-12-20T14:47:05;12.77;;;2.70;;
7001;SDS011;3541;53.230;10.518;2023-12-20T14:49:32;11.43;;;2.63;;
7001;SDS011;3541;53.230;10.518;2023-12-20T14:51:59;14.33;;;2.73;;
7001;SDS011;3541;53.230;10.518;2023-12-20T14:54:25;11.53;;;3.17;;